Portada
METAR-TAF:

METAR-TAF

Aeropuertos :

Helipuerto de Algeciras

Algeciras, España

latitud: 36-07-44N, longitud: 05-26-28W, altitud: 30 m

Observación

El informe se hizo hace 26 minutos, a las 13:30 UTC
Viento 12 kt del oeste, variando entre sur-suroeste y norte-noroeste
Temperatura 24°C
Humedad 41%
Presión 1014 hPa
Visibilidad 10 km o más
sin nubes por debajo de 1500 m y sin presencia de cumulonimbus.

METAR: LEAG 261330Z AUTO 26012KT 210V330 CAVOK 24/10 Q1014

Hora: 15:56 (13:56 UTC)

Pronóstico

El informe se hizo hace 5 horas y 56 minutos, a las 08:00 UTC
Pronóstico válido del 26 a las 09 UTC al 27 a las 09 UTC
Viento 12 kt del oeste-suroeste
Visibilidad 10 km o más
Escasas nubes a una altura de 2500 ft
Evolucionando progresivamente
del 26 a las 18 UTC al 26 a las 20 UTC
Viento 6 kt del noroeste

TAF: LEAG 260800Z 2609/2709 25012KT 9999 FEW025 TX25/2613Z TN19/2706Z BECMG 2618/2620 31006KT

Observaciones y pronósticos meteorológicos de más de 4000 aeropuertos (mensajes METAR y TAF).

Los puntos amarillos y rojos representan las estaciones disponibles.

Ponga el ratón en el punto deseado para ver el nombre de la estación.

Haga clic para ver las observaciones y los pronósticos meteorológicos.

Para cambiar el mapa : haga clic en los botones verdes con una cruz de color negro para hacer un zoom, en el botón verde con un guión para alejar o en las flechas verdes para mapas adyacentes.


METAR-TAF: